Time,TemperatureF,DewpointF,PressureIn,WindDirection,WindDirectionDegrees,WindSpeedMPH,WindSpeedGustMPH,Humidity,HourlyPrecipIn,Conditions,Clouds,dailyrainin,SoftwareType,DateUTC
2013-03-19 00:01:00,50.0,42.0,29.98,ESE,123,1.0,2.0,74,0.00,,,0.00,,2013-03-19 07:01:00,
2013-03-19 00:12:00,50.0,42.0,29.98,ESE,123,1.0,2.0,74,0.00,,,0.00,,2013-03-19 07:12:00,
2013-03-19 00:21:00,50.0,42.0,29.98,SE,141,2.0,3.0,74,0.00,,,0.00,,2013-03-19 07:21:00,
2013-03-19 00:32:00,49.0,41.0,29.98,SE,141,1.0,2.0,74,0.00,,,0.00,,2013-03-19 07:32:00,
2013-03-19 00:42:00,49.0,41.0,29.98,SE,141,1.0,2.0,74,0.00,,,0.00,,2013-03-19 07:42:00,
2013-03-19 00:52:00,49.0,41.0,29.98,SE,141,0.0,3.0,73,0.00,,,0.00,,2013-03-19 07:52:00,
2013-03-19 01:02:00,48.0,40.0,29.98,SE,141,1.0,2.0,73,0.00,,,0.00,,2013-03-19 08:02:00,
2013-03-19 01:12:00,48.0,40.0,29.98,SE,141,1.0,2.0,73,0.00,,,0.00,,2013-03-19 08:12:00,
2013-03-19 01:21:00,49.0,41.0,29.97,SE,137,2.0,3.0,73,0.00,,,0.00,,2013-03-19 08:21:00,
2013-03-19 01:32:00,49.0,40.0,29.98,SE,137,1.0,2.0,71,0.00,,,0.00,,2013-03-19 08:32:00,
2013-03-19 01:42:00,49.0,40.0,29.98,SE,137,1.0,2.0,71,0.00,,,0.00,,2013-03-19 08:42:00,
2013-03-19 01:52:00,49.0,41.0,29.97,SE,137,0.0,2.0,73,0.00,,,0.00,,2013-03-19 08:52:00,
2013-03-19 02:02:00,49.0,41.0,29.97,SE,137,0.0,2.0,73,0.00,,,0.00,,2013-03-19 09:02:00,
2013-03-19 02:12:00,49.0,41.0,29.97,SE,137,0.0,2.0,73,0.00,,,0.00,,2013-03-19 09:12:00,
2013-03-19 02:22:00,50.0,39.0,29.98,South,184,1.0,2.0,67,0.00,,,0.00,,2013-03-19 09:22:00,
2013-03-19 02:32:00,50.0,38.0,29.97,South,169,0.0,1.0,64,0.00,,,0.00,,2013-03-19 09:32:00,
2013-03-19 02:43:00,50.0,38.0,29.97,South,169,0.0,1.0,64,0.00,,,0.00,,2013-03-19 09:43:00,
2013-03-19 02:53:00,49.0,37.0,29.97,SSE,151,1.0,3.0,63,0.00,,,0.00,,2013-03-19 09:53:00,
2013-03-19 03:03:00,48.0,36.0,29.97,SSE,149,1.0,2.0,63,0.00,,,0.00,,2013-03-19 10:03:00,
2013-03-19 03:12:00,48.0,36.0,29.97,SSE,149,1.0,2.0,63,0.00,,,0.00,,2013-03-19 10:12:00,
2013-03-19 03:22:00,47.0,36.0,29.96,SE,142,2.0,2.0,65,0.00,,,0.00,,2013-03-19 10:22:00,
2013-03-19 03:32:00,46.0,35.0,29.96,SE,142,2.0,3.0,64,0.00,,,0.00,,2013-03-19 10:32:00,
2013-03-19 03:42:00,46.0,35.0,29.96,SE,142,2.0,3.0,64,0.00,,,0.00,,2013-03-19 10:42:00,
2013-03-19 03:53:00,46.0,35.0,29.96,SE,138,2.0,3.0,65,0.00,,,0.00,,2013-03-19 10:53:00,
2013-03-19 04:02:00,46.0,35.0,29.96,SE,137,2.0,3.0,64,0.00,,,0.00,,2013-03-19 11:02:00,
2013-03-19 04:11:00,46.0,35.0,29.96,SE,137,2.0,3.0,64,0.00,,,0.00,,2013-03-19 11:11:00,
2013-03-19 04:22:00,46.0,35.0,29.96,SE,137,2.0,3.0,64,0.00,,,0.00,,2013-03-19 11:22:00,
2013-03-19 04:32:00,45.0,34.0,29.95,SE,134,2.0,3.0,66,0.00,,,0.00,,2013-03-19 11:32:00,
2013-03-19 04:42:00,45.0,34.0,29.95,SE,134,2.0,3.0,66,0.00,,,0.00,,2013-03-19 11:42:00,
2013-03-19 04:52:00,45.0,34.0,29.95,SE,135,1.0,3.0,66,0.00,,,0.00,,2013-03-19 11:52:00,
2013-03-19 05:02:00,44.0,35.0,29.95,SE,134,1.0,2.0,71,0.00,,,0.00,,2013-03-19 12:02:00,
2013-03-19 05:12:00,44.0,35.0,29.95,SE,134,1.0,2.0,71,0.00,,,0.00,,2013-03-19 12:12:00,
2013-03-19 05:22:00,44.0,35.0,29.95,SE,134,2.0,3.0,71,0.00,,,0.00,,2013-03-19 12:22:00,
2013-03-19 05:32:00,45.0,36.0,29.96,SE,139,1.0,3.0,71,0.00,,,0.00,,2013-03-19 12:32:00,
2013-03-19 05:42:00,45.0,36.0,29.96,SE,139,1.0,3.0,71,0.00,,,0.00,,2013-03-19 12:42:00,
2013-03-19 05:52:00,44.0,36.0,29.96,SE,126,1.0,2.0,72,0.00,,,0.00,,2013-03-19 12:52:00,
2013-03-19 06:02:00,44.0,36.0,29.96,SE,126,0.0,2.0,74,0.00,,,0.00,,2013-03-19 13:02:00,
2013-03-19 06:12:00,44.0,36.0,29.96,SE,126,0.0,2.0,74,0.00,,,0.00,,2013-03-19 13:12:00,
2013-03-19 06:22:00,44.0,36.0,29.97,SE,126,1.0,2.0,74,0.00,,,0.00,,2013-03-19 13:22:00,
2013-03-19 06:32:00,43.0,35.0,29.97,SE,130,2.0,3.0,73,0.00,,,0.00,,2013-03-19 13:32:00,
2013-03-19 06:42:00,43.0,35.0,29.97,SE,130,2.0,3.0,73,0.00,,,0.00,,2013-03-19 13:42:00,
2013-03-19 06:52:00,44.0,35.0,29.97,SE,126,0.0,3.0,71,0.00,,,0.00,,2013-03-19 13:52:00,
2013-03-19 07:01:00,43.0,35.0,29.98,ESE,108,1.0,2.0,72,0.00,,,0.00,,2013-03-19 14:01:00,
2013-03-19 07:12:00,43.0,35.0,29.98,ESE,108,1.0,2.0,72,0.00,,,0.00,,2013-03-19 14:12:00,
2013-03-19 07:22:00,43.0,38.0,29.98,ESE,109,0.0,2.0,81,0.00,,,0.00,,2013-03-19 14:22:00,
2013-03-19 07:32:00,44.0,39.0,29.98,SE,136,0.0,2.0,82,0.00,,,0.00,,2013-03-19 14:32:00,
2013-03-19 07:42:00,44.0,39.0,29.98,SE,136,0.0,2.0,82,0.00,,,0.00,,2013-03-19 14:42:00,
2013-03-19 07:52:00,43.0,38.0,29.98,SE,136,1.0,1.0,83,0.00,,,0.00,,2013-03-19 14:52:00,
2013-03-19 08:02:00,44.0,40.0,29.98,SE,131,0.0,2.0,85,0.00,,,0.00,,2013-03-19 15:02:00,
2013-03-19 08:12:00,44.0,40.0,29.98,SE,131,0.0,2.0,85,0.00,,,0.00,,2013-03-19 15:12:00,
2013-03-19 08:22:00,44.0,39.0,29.98,ENE,72,0.0,2.0,84,0.00,,,0.00,,2013-03-19 15:22:00,
2013-03-19 08:33:00,45.0,41.0,29.98,ENE,72,0.0,1.0,85,0.00,,,0.00,,2013-03-19 15:33:00,
2013-03-19 08:43:00,45.0,41.0,29.98,ENE,72,0.0,1.0,85,0.00,,,0.00,,2013-03-19 15:43:00,
2013-03-19 08:53:00,46.0,41.0,29.99,ENE,72,0.0,2.0,82,0.00,,,0.00,,2013-03-19 15:53:00,
2013-03-19 09:03:00,48.0,42.0,29.99,ENE,72,0.0,2.0,81,0.00,,,0.00,,2013-03-19 16:03:00,
2013-03-19 09:12:00,48.0,42.0,29.99,ENE,72,0.0,2.0,81,0.00,,,0.00,,2013-03-19 16:12:00,
2013-03-19 09:23:00,48.0,42.0,29.99,ENE,72,0.0,2.0,81,0.00,,,0.00,,2013-03-19 16:23:00,
2013-03-19 09:33:00,51.0,43.0,29.98,North,9,0.0,0.0,75,0.00,,,0.00,,2013-03-19 16:33:00,
2013-03-19 09:43:00,51.0,43.0,29.98,North,9,0.0,0.0,75,0.00,,,0.00,,2013-03-19 16:43:00,
2013-03-19 10:02:00,55.0,45.0,30.00,North,5,0.0,3.0,68,0.00,,,0.00,,2013-03-19 17:02:00,
2013-03-19 10:23:00,55.0,44.0,30.00,North,355,2.0,4.0,66,0.00,,,0.00,,2013-03-19 17:23:00,
2013-03-19 10:34:00,55.0,44.0,30.00,North,355,2.0,4.0,66,0.00,,,0.00,,2013-03-19 17:34:00,
2013-03-19 10:43:00,55.0,44.0,30.00,North,355,2.0,4.0,66,0.00,,,0.00,,2013-03-19 17:43:00,
2013-03-19 10:52:00,57.0,44.0,30.00,WNW,293,1.0,3.0,62,0.00,,,0.00,,2013-03-19 17:52:00,
2013-03-19 11:02:00,58.0,45.0,30.00,WNW,290,1.0,3.0,61,0.00,,,0.00,,2013-03-19 18:02:00,
2013-03-19 11:13:00,58.0,45.0,30.00,WNW,290,1.0,3.0,61,0.00,,,0.00,,2013-03-19 18:13:00,
2013-03-19 11:23:00,58.0,45.0,30.00,WNW,290,1.0,3.0,61,0.00,,,0.00,,2013-03-19 18:23:00,
2013-03-19 11:33:00,58.0,43.0,30.00,NW,313,2.0,4.0,57,0.00,,,0.00,,2013-03-19 18:33:00,
2013-03-19 11:42:00,58.0,43.0,30.00,NW,313,2.0,4.0,57,0.00,,,0.00,,2013-03-19 18:42:00,
2013-03-19 11:52:00,59.0,45.0,30.00,NW,305,2.0,4.0,60,0.00,,,0.00,,2013-03-19 18:52:00,
2013-03-19 12:02:00,60.0,44.0,30.00,NNW,333,2.0,4.0,55,0.00,,,0.00,,2013-03-19 19:02:00,
2013-03-19 12:12:00,60.0,44.0,30.00,NNW,333,2.0,4.0,55,0.00,,,0.00,,2013-03-19 19:12:00,
2013-03-19 12:22:00,60.0,44.0,30.00,NNW,333,2.0,4.0,55,0.00,,,0.00,,2013-03-19 19:22:00,
2013-03-19 12:32:00,61.0,43.0,30.01,North,355,2.0,5.0,51,0.00,,,0.00,,2013-03-19 19:32:00,
2013-03-19 12:43:00,61.0,43.0,30.01,North,355,2.0,5.0,51,0.00,,,0.00,,2013-03-19 19:43:00,
2013-03-19 12:53:00,60.0,43.0,30.01,West,280,3.0,6.0,54,0.00,,,0.00,,2013-03-19 19:53:00,
2013-03-19 13:02:00,60.0,44.0,30.01,West,276,2.0,6.0,55,0.00,,,0.00,,2013-03-19 20:02:00,
2013-03-19 13:12:00,60.0,44.0,30.01,West,276,2.0,6.0,55,0.00,,,0.00,,2013-03-19 20:12:00,
2013-03-19 13:22:00,60.0,45.0,30.01,WSW,252,3.0,6.0,57,0.00,,,0.00,,2013-03-19 20:22:00,
2013-03-19 13:32:00,59.0,43.0,30.01,WSW,238,4.0,9.0,56,0.00,,,0.00,,2013-03-19 20:32:00,
2013-03-19 13:42:00,59.0,43.0,30.01,WSW,238,4.0,9.0,56,0.00,,,0.00,,2013-03-19 20:42:00,
2013-03-19 13:52:00,58.0,44.0,30.01,West,265,3.0,5.0,60,0.00,,,0.00,,2013-03-19 20:52:00,
2013-03-19 14:02:00,57.0,45.0,30.01,WSW,258,2.0,6.0,63,0.00,,,0.00,,2013-03-19 21:02:00,
2013-03-19 14:11:00,57.0,45.0,30.01,WSW,258,2.0,6.0,63,0.00,,,0.00,,2013-03-19 21:11:00,
2013-03-19 14:22:00,56.0,45.0,30.00,WNW,294,2.0,5.0,67,0.00,,,0.00,,2013-03-19 21:22:00,
2013-03-19 14:33:00,58.0,44.0,29.99,WSW,240,1.0,3.0,60,0.00,,,0.00,,2013-03-19 21:33:00,
2013-03-19 14:42:00,58.0,44.0,29.99,WSW,240,1.0,3.0,60,0.00,,,0.00,,2013-03-19 21:42:00,
2013-03-19 14:52:00,59.0,45.0,30.00,WNW,298,2.0,5.0,59,0.00,,,0.00,,2013-03-19 21:52:00,
2013-03-19 15:03:00,60.0,45.0,30.00,NNW,327,2.0,5.0,58,0.00,,,0.00,,2013-03-19 22:03:00,
2013-03-19 15:12:00,60.0,45.0,30.00,NNW,327,2.0,5.0,58,0.00,,,0.00,,2013-03-19 22:12:00,
2013-03-19 15:22:00,59.0,46.0,30.00,West,268,1.0,5.0,61,0.00,,,0.00,,2013-03-19 22:22:00,
2013-03-19 15:33:00,59.0,46.0,30.00,WSW,257,1.0,5.0,62,0.00,,,0.00,,2013-03-19 22:33:00,
2013-03-19 15:43:00,59.0,46.0,30.00,WSW,257,1.0,5.0,62,0.00,,,0.00,,2013-03-19 22:43:00,
2013-03-19 15:52:00,59.0,46.0,30.00,WSW,246,0.0,6.0,61,0.00,,,0.00,,2013-03-19 22:52:00,
2013-03-19 16:02:00,58.0,44.0,29.99,SSW,207,1.0,3.0,60,0.00,,,0.00,,2013-03-19 23:02:00,
2013-03-19 16:12:00,58.0,44.0,29.99,SSW,207,1.0,3.0,60,0.00,,,0.00,,2013-03-19 23:12:00,
2013-03-19 16:22:00,58.0,44.0,29.99,SSW,207,1.0,3.0,60,0.00,,,0.00,,2013-03-19 23:22:00,
2013-03-19 16:32:00,59.0,46.0,29.98,WNW,293,0.0,1.0,63,0.00,,,0.00,,2013-03-19 23:32:00,
2013-03-19 16:43:00,59.0,46.0,29.98,WNW,293,0.0,1.0,63,0.00,,,0.00,,2013-03-19 23:43:00,
2013-03-19 16:52:00,59.0,46.0,29.98,WNW,293,0.0,1.0,63,0.00,,,0.00,,2013-03-19 23:52:00,
2013-03-19 17:02:00,58.0,47.0,29.98,WSW,244,1.0,2.0,66,0.00,,,0.00,,2013-03-20 00:02:00,
2013-03-19 17:12:00,58.0,47.0,29.98,WSW,244,1.0,2.0,66,0.00,,,0.00,,2013-03-20 00:12:00,
2013-03-19 17:22:00,57.0,47.0,29.99,WSW,244,0.0,2.0,70,0.00,,,0.00,,2013-03-20 00:22:00,
2013-03-19 17:32:00,57.0,47.0,29.99,WSW,248,3.0,8.0,68,0.00,,,0.00,,2013-03-20 00:32:00,
2013-03-19 17:42:00,57.0,47.0,29.99,WSW,248,3.0,8.0,68,0.00,,,0.00,,2013-03-20 00:42:00,
2013-03-19 17:52:00,56.0,47.0,30.00,West,265,3.0,7.0,71,0.00,,,0.00,,2013-03-20 00:52:00,
2013-03-19 18:02:00,56.0,47.0,30.00,West,265,3.0,7.0,71,0.00,,,0.00,,2013-03-20 01:02:00,
2013-03-19 18:12:00,56.0,47.0,30.00,West,265,3.0,7.0,71,0.00,,,0.00,,2013-03-20 01:12:00,
2013-03-19 18:22:00,55.0,46.0,30.00,West,272,2.0,4.0,72,0.00,,,0.00,,2013-03-20 01:22:00,
2013-03-19 18:32:00,55.0,46.0,30.00,West,272,2.0,4.0,72,0.00,,,0.00,,2013-03-20 01:32:00,
2013-03-19 18:42:00,55.0,46.0,30.00,West,272,2.0,4.0,72,0.00,,,0.00,,2013-03-20 01:42:00,
2013-03-19 18:52:00,54.0,45.0,30.01,WSW,253,2.0,6.0,71,0.00,,,0.00,,2013-03-20 01:52:00,
2013-03-19 19:02:00,54.0,46.0,30.01,West,265,2.0,6.0,74,0.00,,,0.00,,2013-03-20 02:02:00,
2013-03-19 19:11:00,54.0,46.0,30.01,West,265,2.0,6.0,74,0.00,,,0.00,,2013-03-20 02:11:00,
2013-03-19 19:21:00,54.0,46.0,30.01,West,265,2.0,6.0,74,0.00,,,0.00,,2013-03-20 02:21:00,
2013-03-19 19:32:00,51.0,46.0,30.02,SW,227,1.0,4.0,82,0.02,,,0.02,,2013-03-20 02:32:00,
2013-03-19 19:43:00,51.0,46.0,30.02,SW,227,1.0,4.0,82,0.02,,,0.02,,2013-03-20 02:43:00,
2013-03-19 19:53:00,49.0,43.0,30.01,SE,126,0.0,3.0,80,0.03,,,0.03,,2013-03-20 02:53:00,
2013-03-19 20:01:00,48.0,43.0,30.02,South,170,1.0,3.0,83,0.05,,,0.05,,2013-03-20 03:01:00,
2013-03-19 20:12:00,48.0,43.0,30.02,South,170,1.0,3.0,83,0.05,,,0.05,,2013-03-20 03:12:00,
2013-03-19 20:22:00,48.0,43.0,30.02,South,170,1.0,3.0,83,0.05,,,0.05,,2013-03-20 03:22:00,
2013-03-19 20:33:00,45.0,42.0,30.01,SSE,164,1.0,3.0,90,0.05,,,0.07,,2013-03-20 03:33:00,
2013-03-19 20:43:00,45.0,42.0,30.01,SSE,164,1.0,3.0,90,0.05,,,0.07,,2013-03-20 03:43:00,
2013-03-19 20:53:00,45.0,43.0,30.00,SSE,153,1.0,2.0,91,0.04,,,0.07,,2013-03-20 03:53:00,
2013-03-19 21:02:00,44.0,42.0,29.99,ESE,105,1.0,2.0,91,0.02,,,0.07,,2013-03-20 04:02:00,
2013-03-19 21:12:00,44.0,42.0,29.99,ESE,105,1.0,2.0,91,0.02,,,0.07,,2013-03-20 04:12:00,
2013-03-19 21:22:00,44.0,42.0,29.99,ESE,119,0.0,3.0,91,0.01,,,0.07,,2013-03-20 04:22:00,
2013-03-19 21:32:00,44.0,42.0,29.99,ESE,119,1.0,2.0,93,0.00,,,0.07,,2013-03-20 04:32:00,
2013-03-19 21:43:00,44.0,42.0,29.99,ESE,119,1.0,2.0,93,0.00,,,0.07,,2013-03-20 04:43:00,
2013-03-19 21:52:00,44.0,42.0,29.99,SE,130,1.0,3.0,93,0.00,,,0.07,,2013-03-20 04:52:00,
2013-03-19 22:02:00,44.0,42.0,29.99,SE,130,1.0,3.0,93,0.00,,,0.07,,2013-03-20 05:02:00,
2013-03-19 22:12:00,45.0,43.0,29.98,East,93,1.0,2.0,94,0.00,,,0.07,,2013-03-20 05:12:00,
2013-03-19 22:22:00,45.0,43.0,29.98,East,93,1.0,2.0,94,0.00,,,0.07,,2013-03-20 05:22:00,
2013-03-19 22:32:00,45.0,43.0,29.98,ESE,115,1.0,4.0,92,0.00,,,0.07,,2013-03-20 05:32:00,
2013-03-19 22:42:00,45.0,43.0,29.98,ESE,115,1.0,4.0,92,0.00,,,0.07,,2013-03-20 05:42:00,
2013-03-19 22:52:00,44.0,42.0,29.98,SE,142,1.0,3.0,92,0.00,,,0.07,,2013-03-20 05:52:00,
2013-03-19 23:02:00,45.0,43.0,29.98,ENE,76,1.0,3.0,91,0.00,,,0.07,,2013-03-20 06:02:00,
2013-03-19 23:12:00,45.0,43.0,29.98,ENE,76,1.0,3.0,91,0.00,,,0.07,,2013-03-20 06:12:00,
2013-03-19 23:22:00,45.0,43.0,29.98,SSE,150,0.0,2.0,93,0.00,,,0.07,,2013-03-20 06:22:00,
2013-03-19 23:32:00,45.0,43.0,29.99,SSE,151,1.0,2.0,92,0.00,,,0.07,,2013-03-20 06:32:00,
2013-03-19 23:42:00,45.0,43.0,29.99,SSE,151,1.0,2.0,92,0.00,,,0.07,,2013-03-20 06:42:00,
2013-03-19 23:52:00,45.0,43.0,29.98,East,91,0.0,4.0,92,0.00,,,0.07,,2013-03-20 06:52:00,